Time,TemperatureF,DewpointF,PressureIn,WindDirection,WindDirectionDegrees,WindSpeedMPH,WindSpeedGustMPH,Humidity,HourlyPrecipIn,Conditions,Clouds,dailyrainin,SoftwareType,DateUTC
2014-08-30 00:01:00,76.0,70.1,30.13,East,90,4.0,4.0,82,0.00,,SKC,0.00,VWS V15.00,2014-08-30 04:01:00,
2014-08-30 00:06:00,76.0,70.1,30.13,ESE,112,7.0,7.0,82,0.00,,SKC,0.00,VWS V15.00,2014-08-30 04:06:00,
2014-08-30 00:11:00,76.0,70.1,30.12,East,90,5.0,6.0,82,0.00,,SKC,0.00,VWS V15.00,2014-08-30 04:11:00,
2014-08-30 00:16:00,77.0,70.7,30.13,East,90,6.0,7.0,81,0.00,,SKC,0.00,VWS V15.00,2014-08-30 04:16:00,
2014-08-30 00:21:00,77.0,70.4,30.13,East,90,6.0,8.0,80,0.00,,SKC,0.00,VWS V15.00,2014-08-30 04:21:00,
2014-08-30 00:26:00,77.0,70.4,30.13,East,90,2.0,4.0,80,0.00,,SKC,0.00,VWS V15.00,2014-08-30 04:26:00,
2014-08-30 00:31:00,77.0,70.4,30.13,East,90,0.0,0.0,80,0.00,,SKC,0.00,VWS V15.00,2014-08-30 04:31:00,
2014-08-30 00:36:00,77.0,70.4,30.12,SE,135,0.0,2.0,80,0.00,,SKC,0.00,VWS V15.00,2014-08-30 04:36:00,
2014-08-30 00:41:00,77.0,70.4,30.12,SSE,157,0.0,0.0,80,0.00,,SKC,0.00,VWS V15.00,2014-08-30 04:41:00,
2014-08-30 00:46:00,77.0,70.4,30.12,SSE,157,0.0,0.0,80,0.00,,SKC,0.00,VWS V15.00,2014-08-30 04:46:00,
2014-08-30 00:51:00,76.0,69.4,30.12,WNW,292,3.0,4.0,80,0.00,,SKC,0.00,VWS V15.00,2014-08-30 04:51:00,
2014-08-30 00:56:00,77.0,70.4,30.12,WNW,292,4.0,5.0,80,0.00,,SKC,0.00,VWS V15.00,2014-08-30 04:56:00,
2014-08-30 01:01:00,77.0,70.4,30.12,NW,315,3.0,7.0,80,0.00,,SKC,0.00,VWS V15.00,2014-08-30 05:01:00,
2014-08-30 01:06:00,77.0,70.4,30.13,NNW,337,4.0,5.0,80,0.00,,SKC,0.00,VWS V15.00,2014-08-30 05:06:00,
2014-08-30 01:11:00,77.0,70.4,30.13,NNW,337,5.0,7.0,80,0.00,,SKC,0.00,VWS V15.00,2014-08-30 05:11:00,
2014-08-30 01:16:00,77.0,70.7,30.13,NNW,337,1.0,2.0,81,0.00,,SKC,0.00,VWS V15.00,2014-08-30 05:16:00,
2014-08-30 01:21:00,77.0,70.7,30.13,NW,315,3.0,4.0,81,0.00,,SKC,0.00,VWS V15.00,2014-08-30 05:21:00,
2014-08-30 01:26:00,77.0,71.1,30.13,ENE,67,0.0,1.0,82,0.00,,SKC,0.00,VWS V15.00,2014-08-30 05:26:00,
2014-08-30 01:31:00,77.0,71.1,30.13,NNW,337,2.0,2.0,82,0.00,,SKC,0.00,VWS V15.00,2014-08-30 05:31:00,
2014-08-30 01:36:00,77.0,71.4,30.13,East,90,0.0,3.0,83,0.00,,SKC,0.00,VWS V15.00,2014-08-30 05:36:00,
2014-08-30 01:42:00,77.0,71.4,30.13,ESE,112,2.0,2.0,83,0.00,,SKC,0.00,VWS V15.00,2014-08-30 05:42:00,
2014-08-30 01:43:00,77.0,71.4,30.13,ESE,112,3.0,3.0,83,0.00,,SKC,0.00,VWS V15.00,2014-08-30 05:43:00,
2014-08-30 01:44:00,77.0,71.4,30.14,ESE,112,4.0,4.0,83,0.00,,SKC,0.00,VWS V15.00,2014-08-30 05:44:00,
2014-08-30 01:45:00,77.0,71.4,30.13,ESE,112,5.0,5.0,83,0.00,,SKC,0.00,VWS V15.00,2014-08-30 05:45:00,
2014-08-30 01:46:00,77.0,71.8,30.14,ESE,112,6.0,6.0,84,0.00,,SKC,0.00,VWS V15.00,2014-08-30 05:46:00,
2014-08-30 01:47:00,77.0,71.8,30.14,ESE,112,6.0,7.0,84,0.00,,SKC,0.00,VWS V15.00,2014-08-30 05:47:00,
2014-08-30 01:48:00,76.0,70.8,30.14,ESE,112,8.0,8.0,84,0.00,,SKC,0.00,VWS V15.00,2014-08-30 05:48:00,
2014-08-30 01:49:00,76.0,70.8,30.14,South,180,9.0,9.0,84,0.00,,SKC,0.00,VWS V15.00,2014-08-30 05:49:00,
2014-08-30 01:50:00,76.0,70.8,30.14,ESE,112,6.0,9.0,84,0.00,,SKC,0.00,VWS V15.00,2014-08-30 05:50:00,
2014-08-30 01:51:00,76.0,70.8,30.14,South,180,6.0,8.0,84,0.00,,SKC,0.00,VWS V15.00,2014-08-30 05:51:00,
2014-08-30 01:52:00,76.0,70.8,30.14,South,180,5.0,8.0,84,0.00,,SKC,0.00,VWS V15.00,2014-08-30 05:52:00,
2014-08-30 01:53:00,76.0,70.8,30.14,South,180,3.0,5.0,84,0.00,,SKC,0.00,VWS V15.00,2014-08-30 05:53:00,
2014-08-30 01:54:00,76.0,70.8,30.14,ESE,112,5.0,6.0,84,0.00,,SKC,0.00,VWS V15.00,2014-08-30 05:54:00,
2014-08-30 01:55:00,76.0,71.2,30.14,South,180,4.0,6.0,85,0.00,,SKC,0.00,VWS V15.00,2014-08-30 05:55:00,
2014-08-30 01:56:00,76.0,71.2,30.14,ESE,112,4.0,6.0,85,0.00,,SKC,0.00,VWS V15.00,2014-08-30 05:56:00,
2014-08-30 01:57:00,76.0,71.2,30.14,ESE,112,2.0,5.0,85,0.00,,SKC,0.00,VWS V15.00,2014-08-30 05:57:00,
2014-08-30 01:58:00,76.0,71.2,30.14,South,180,5.0,6.0,85,0.00,,SKC,0.00,VWS V15.00,2014-08-30 05:58:00,
2014-08-30 01:59:00,76.0,71.2,30.14,ESE,112,3.0,5.0,85,0.00,,SKC,0.00,VWS V15.00,2014-08-30 05:59:00,
2014-08-30 02:00:00,76.0,71.2,30.14,ESE,112,4.0,5.0,85,0.00,,SKC,0.00,VWS V15.00,2014-08-30 06:00:00,
2014-08-30 02:01:00,76.0,71.2,30.14,South,180,6.0,7.0,85,40.80,,SKC,0.00,VWS V15.00,2014-08-30 06:01:00,
2014-08-30 02:02:00,76.0,71.2,30.14,South,180,4.0,7.0,85,0.00,,SKC,0.00,VWS V15.00,2014-08-30 06:02:00,
2014-08-30 02:03:00,76.0,71.2,30.14,NNE,22,2.0,4.0,85,0.00,,SKC,0.00,VWS V15.00,2014-08-30 06:03:00,
2014-08-30 02:04:00,76.0,71.2,30.14,NNE,22,3.0,5.0,85,0.00,,SKC,0.00,VWS V15.00,2014-08-30 06:04:00,
2014-08-30 02:05:00,76.0,71.2,30.14,South,180,2.0,3.0,85,0.00,,SKC,0.00,VWS V15.00,2014-08-30 06:05:00,
2014-08-30 02:06:00,76.0,71.2,30.14,NNE,22,4.0,4.0,85,0.00,,SKC,0.00,VWS V15.00,2014-08-30 06:06:00,
2014-08-30 02:07:00,76.0,71.2,30.14,NNE,22,2.0,4.0,85,0.00,,SKC,0.00,VWS V15.00,2014-08-30 06:07:00,
2014-08-30 02:08:00,76.0,71.2,30.14,NNE,22,3.0,3.0,85,0.00,,SKC,0.00,VWS V15.00,2014-08-30 06:08:00,
2014-08-30 02:09:00,76.0,71.2,30.14,NNE,22,1.0,3.0,85,0.00,,SKC,0.00,VWS V15.00,2014-08-30 06:09:00,
2014-08-30 02:10:00,76.0,71.2,30.14,NNE,22,3.0,5.0,85,0.00,,SKC,0.00,VWS V15.00,2014-08-30 06:10:00,
2014-08-30 02:11:00,76.0,71.2,30.14,NNE,22,3.0,4.0,85,0.00,,SKC,0.00,VWS V15.00,2014-08-30 06:11:00,
2014-08-30 02:12:00,76.0,71.5,30.14,NNE,22,3.0,4.0,86,0.00,,SKC,0.00,VWS V15.00,2014-08-30 06:12:00,
2014-08-30 02:13:00,76.0,71.5,30.14,NNE,22,3.0,4.0,86,0.00,,SKC,0.00,VWS V15.00,2014-08-30 06:13:00,
2014-08-30 02:14:00,76.0,71.5,30.14,NNE,22,4.0,4.0,86,0.00,,SKC,0.00,VWS V15.00,2014-08-30 06:14:00,
2014-08-30 02:15:00,76.0,71.5,30.14,South,180,4.0,5.0,86,0.00,,SKC,0.00,VWS V15.00,2014-08-30 06:15:00,
2014-08-30 02:16:00,76.0,71.5,30.14,NNE,22,3.0,4.0,86,0.00,,SKC,0.00,VWS V15.00,2014-08-30 06:16:00,
2014-08-30 02:17:00,75.0,70.5,30.14,NNE,22,1.0,3.0,86,0.00,,SKC,0.00,VWS V15.00,2014-08-30 06:17:00,
2014-08-30 02:18:00,75.0,70.5,30.14,NNE,22,3.0,3.0,86,0.00,,SKC,0.00,VWS V15.00,2014-08-30 06:18:00,
2014-08-30 02:19:00,75.0,70.5,30.14,NNE,22,4.0,4.0,86,0.00,,SKC,0.00,VWS V15.00,2014-08-30 06:19:00,
2014-08-30 02:20:00,75.0,70.5,30.14,NNE,22,2.0,4.0,86,0.00,,SKC,0.00,VWS V15.00,2014-08-30 06:20:00,
2014-08-30 02:21:00,75.0,70.5,30.13,NNE,22,2.0,3.0,86,0.00,,SKC,0.00,VWS V15.00,2014-08-30 06:21:00,
2014-08-30 02:22:00,75.0,70.5,30.14,NNE,22,1.0,2.0,86,0.00,,SKC,0.00,VWS V15.00,2014-08-30 06:22:00,
2014-08-30 02:23:00,75.0,70.5,30.14,NNE,22,0.0,1.0,86,0.00,,SKC,0.00,VWS V15.00,2014-08-30 06:23:00,
2014-08-30 02:24:00,75.0,70.5,30.14,NNE,22,0.0,0.0,86,0.00,,SKC,0.00,VWS V15.00,2014-08-30 06:24:00,
2014-08-30 02:25:00,75.0,70.5,30.14,NNE,22,0.0,0.0,86,0.00,,SKC,0.00,VWS V15.00,2014-08-30 06:25:00,
2014-08-30 02:26:00,75.0,70.5,30.14,NNE,22,0.0,0.0,86,0.00,,SKC,0.00,VWS V15.00,2014-08-30 06:26:00,
2014-08-30 02:27:00,75.0,70.5,30.14,NNE,22,0.0,0.0,86,0.00,,SKC,0.00,VWS V15.00,2014-08-30 06:27:00,
2014-08-30 02:28:00,75.0,70.5,30.13,NNE,22,0.0,0.0,86,0.00,,SKC,0.00,VWS V15.00,2014-08-30 06:28:00,
2014-08-30 02:29:00,75.0,70.5,30.13,NNE,22,0.0,0.0,86,0.00,,SKC,0.00,VWS V15.00,2014-08-30 06:29:00,
2014-08-30 02:30:00,75.0,70.5,30.13,NNE,22,0.0,0.0,86,0.00,,SKC,0.00,VWS V15.00,2014-08-30 06:30:00,
2014-08-30 02:40:00,75.0,70.2,30.13,NNE,22,0.0,0.0,85,0.00,,SKC,0.00,VWS V15.00,2014-08-30 06:40:00,
2014-08-30 02:45:00,76.0,71.2,30.13,NNE,22,0.0,0.0,85,0.00,,SKC,0.00,VWS V15.00,2014-08-30 06:45:00,
2014-08-30 02:50:00,76.0,71.2,30.13,WNW,292,2.0,3.0,85,0.00,,SKC,0.00,VWS V15.00,2014-08-30 06:50:00,
2014-08-30 02:55:00,76.0,71.2,30.14,WNW,292,4.0,4.0,85,0.00,,SKC,0.00,VWS V15.00,2014-08-30 06:55:00,
2014-08-30 03:00:00,76.0,71.2,30.14,West,270,1.0,1.0,85,0.00,,SKC,0.00,VWS V15.00,2014-08-30 07:00:00,
2014-08-30 03:05:00,76.0,71.2,30.14,WNW,292,1.0,2.0,85,0.00,,SKC,0.00,VWS V15.00,2014-08-30 07:05:00,
2014-08-30 03:10:00,76.0,71.2,30.14,WNW,292,0.0,0.0,85,0.00,,SKC,0.00,VWS V15.00,2014-08-30 07:10:00,
2014-08-30 03:15:00,76.0,71.2,30.13,WNW,292,0.0,0.0,85,0.00,,SKC,0.00,VWS V15.00,2014-08-30 07:15:00,
2014-08-30 03:20:00,76.0,71.2,30.13,NNE,22,3.0,4.0,85,0.00,,SKC,0.00,VWS V15.00,2014-08-30 07:20:00,
2014-08-30 03:25:00,76.0,71.2,30.13,NNE,22,4.0,4.0,85,0.00,,SKC,0.00,VWS V15.00,2014-08-30 07:25:00,
2014-08-30 03:30:00,76.0,71.2,30.13,NNE,22,4.0,4.0,85,0.00,,SKC,0.00,VWS V15.00,2014-08-30 07:30:00,
2014-08-30 03:35:00,76.0,71.2,30.13,South,180,4.0,4.0,85,0.00,,SKC,0.00,VWS V15.00,2014-08-30 07:35:00,
2014-08-30 03:40:00,76.0,71.2,30.13,ESE,112,2.0,2.0,85,0.00,,SKC,0.00,VWS V15.00,2014-08-30 07:40:00,
2014-08-30 03:45:00,76.0,71.5,30.13,South,180,2.0,2.0,86,0.00,,SKC,0.00,VWS V15.00,2014-08-30 07:45:00,
2014-08-30 03:50:00,75.0,70.9,30.13,NNE,22,3.0,4.0,87,0.00,,SKC,0.00,VWS V15.00,2014-08-30 07:50:00,
2014-08-30 03:55:00,75.0,70.9,30.13,South,180,2.0,3.0,87,0.00,,SKC,0.00,VWS V15.00,2014-08-30 07:55:00,
2014-08-30 04:00:00,75.0,71.2,30.13,South,180,2.0,2.0,88,0.00,,SKC,0.00,VWS V15.00,2014-08-30 08:00:00,
2014-08-30 04:05:00,75.0,71.2,30.13,ESE,112,3.0,3.0,88,0.00,,SKC,0.00,VWS V15.00,2014-08-30 08:05:00,
2014-08-30 04:10:00,75.0,71.2,30.13,ESE,112,4.0,4.0,88,0.00,,SKC,0.00,VWS V15.00,2014-08-30 08:10:00,
2014-08-30 04:15:00,75.0,70.9,30.12,South,180,4.0,4.0,87,0.00,,SKC,0.00,VWS V15.00,2014-08-30 08:15:00,
2014-08-30 04:20:00,75.0,70.9,30.13,ESE,112,2.0,2.0,87,0.00,,SKC,0.00,VWS V15.00,2014-08-30 08:20:00,
2014-08-30 04:25:00,75.0,70.9,30.13,South,180,3.0,4.0,87,0.00,,SKC,0.00,VWS V15.00,2014-08-30 08:25:00,
2014-08-30 04:30:00,75.0,70.9,30.12,South,180,3.0,4.0,87,0.00,,SKC,0.00,VWS V15.00,2014-08-30 08:30:00,
2014-08-30 04:35:00,75.0,70.9,30.13,South,180,3.0,4.0,87,0.00,,SKC,0.00,VWS V15.00,2014-08-30 08:35:00,
2014-08-30 04:40:00,75.0,71.2,30.13,South,180,5.0,5.0,88,0.00,,SKC,0.00,VWS V15.00,2014-08-30 08:40:00,
2014-08-30 04:45:00,75.0,71.2,30.13,South,180,6.0,7.0,88,0.00,,SKC,0.00,VWS V15.00,2014-08-30 08:45:00,
2014-08-30 04:50:00,75.0,71.2,30.13,South,180,4.0,4.0,88,0.00,,SKC,0.00,VWS V15.00,2014-08-30 08:50:00,
2014-08-30 04:55:00,75.0,71.2,30.13,South,180,2.0,3.0,88,0.00,,SKC,0.00,VWS V15.00,2014-08-30 08:55:00,
2014-08-30 05:00:00,75.0,71.2,30.13,South,180,4.0,4.0,88,0.00,,SKC,0.00,VWS V15.00,2014-08-30 09:00:00,
2014-08-30 05:05:00,75.0,71.5,30.13,South,180,4.0,5.0,89,0.00,,SKC,0.00,VWS V15.00,2014-08-30 09:05:00,
2014-08-30 05:10:00,75.0,71.5,30.12,South,180,4.0,4.0,89,0.00,,SKC,0.00,VWS V15.00,2014-08-30 09:10:00,
2014-08-30 05:15:00,75.0,71.5,30.13,ESE,112,3.0,3.0,89,0.00,,SKC,0.00,VWS V15.00,2014-08-30 09:15:00,
2014-08-30 05:20:00,75.0,71.5,30.13,South,180,3.0,3.0,89,0.00,,SKC,0.00,VWS V15.00,2014-08-30 09:20:00,
2014-08-30 05:25:00,75.0,71.5,30.13,South,180,3.0,3.0,89,0.00,,SKC,0.00,VWS V15.00,2014-08-30 09:25:00,
2014-08-30 05:30:00,75.0,71.5,30.13,South,180,2.0,2.0,89,0.00,,SKC,0.00,VWS V15.00,2014-08-30 09:30:00,
2014-08-30 05:35:00,75.0,71.5,30.13,South,180,1.0,1.0,89,0.00,,SKC,0.00,VWS V15.00,2014-08-30 09:35:00,
2014-08-30 05:40:00,75.0,71.2,30.14,South,180,3.0,3.0,88,0.00,,SKC,0.00,VWS V15.00,2014-08-30 09:40:00,
2014-08-30 05:45:00,75.0,71.2,30.14,South,180,3.0,3.0,88,0.00,,SKC,0.00,VWS V15.00,2014-08-30 09:45:00,
2014-08-30 05:50:00,75.0,70.9,30.14,South,180,2.0,3.0,87,0.00,,SKC,0.00,VWS V15.00,2014-08-30 09:50:00,
2014-08-30 05:55:00,75.0,70.9,30.13,South,180,3.0,3.0,87,0.00,,SKC,0.00,VWS V15.00,2014-08-30 09:55:00,
2014-08-30 06:00:00,75.0,70.9,30.14,South,180,4.0,4.0,87,0.00,,SKC,0.00,VWS V15.00,2014-08-30 10:00:00,
2014-08-30 06:05:00,75.0,70.9,30.14,ESE,112,5.0,5.0,87,0.00,,SKC,0.00,VWS V15.00,2014-08-30 10:05:00,
2014-08-30 06:10:00,75.0,70.9,30.14,NNE,22,5.0,5.0,87,0.00,,SKC,0.00,VWS V15.00,2014-08-30 10:10:00,
2014-08-30 06:15:00,75.0,70.9,30.14,South,180,3.0,3.0,87,0.00,,SKC,0.00,VWS V15.00,2014-08-30 10:15:00,
2014-08-30 06:20:00,75.0,71.2,30.14,South,180,5.0,7.0,88,0.00,,SKC,0.00,VWS V15.00,2014-08-30 10:20:00,
2014-08-30 06:25:00,75.0,71.5,30.15,South,180,2.0,4.0,89,0.00,,SKC,0.00,VWS V15.00,2014-08-30 10:25:00,
2014-08-30 06:30:00,74.0,70.9,30.15,NNE,22,3.0,7.0,90,0.00,,SKC,0.00,VWS V15.00,2014-08-30 10:30:00,
2014-08-30 06:35:00,74.0,70.9,30.15,South,180,5.0,8.0,90,0.00,,SKC,0.00,VWS V15.00,2014-08-30 10:35:00,
2014-08-30 06:40:00,74.0,71.2,30.15,South,180,4.0,5.0,91,0.00,,SKC,0.00,VWS V15.00,2014-08-30 10:40:00,
2014-08-30 06:45:00,74.0,71.5,30.15,South,180,3.0,5.0,92,0.00,,SKC,0.00,VWS V15.00,2014-08-30 10:45:00,
2014-08-30 06:50:00,74.0,71.5,30.15,NNE,22,4.0,4.0,92,0.00,,SKC,0.00,VWS V15.00,2014-08-30 10:50:00,
2014-08-30 06:55:00,74.0,71.2,30.15,South,180,5.0,7.0,91,0.00,,SKC,0.00,VWS V15.00,2014-08-30 10:55:00,
2014-08-30 07:00:00,74.0,71.2,30.15,South,180,6.0,7.0,91,0.00,,SKC,0.00,VWS V15.00,2014-08-30 11:00:00,
2014-08-30 07:05:00,75.0,71.9,30.15,South,180,3.0,4.0,90,0.00,,SKC,0.00,VWS V15.00,2014-08-30 11:05:00,
2014-08-30 07:10:00,75.0,71.9,30.16,South,180,4.0,4.0,90,0.00,,SKC,0.00,VWS V15.00,2014-08-30 11:10:00,
2014-08-30 07:15:00,75.0,71.9,30.15,NNE,22,4.0,4.0,90,0.00,,SKC,0.00,VWS V15.00,2014-08-30 11:15:00,
2014-08-30 07:20:00,75.0,71.9,30.15,NNE,22,3.0,6.0,90,0.00,,SKC,0.00,VWS V15.00,2014-08-30 11:20:00,
2014-08-30 07:25:00,75.0,71.9,30.16,NNE,22,3.0,5.0,90,0.00,,SKC,0.00,VWS V15.00,2014-08-30 11:25:00,
2014-08-30 07:30:00,75.0,71.9,30.16,NNE,22,2.0,4.0,90,0.00,,SKC,0.00,VWS V15.00,2014-08-30 11:30:00,
2014-08-30 07:35:00,75.0,71.5,30.16,South,180,3.0,4.0,89,0.00,,SKC,0.00,VWS V15.00,2014-08-30 11:35:00,
2014-08-30 07:40:00,75.0,71.5,30.16,NNE,22,5.0,7.0,89,0.00,,SKC,0.00,VWS V15.00,2014-08-30 11:40:00,
2014-08-30 07:45:00,75.0,71.5,30.16,NNE,22,5.0,5.0,89,0.00,,SKC,0.00,VWS V15.00,2014-08-30 11:45:00,
2014-08-30 07:50:00,75.0,71.5,30.16,South,180,5.0,6.0,89,0.00,,SKC,0.00,VWS V15.00,2014-08-30 11:50:00,
2014-08-30 07:55:00,75.0,71.5,30.16,NNE,22,3.0,4.0,89,0.00,,SKC,0.00,VWS V15.00,2014-08-30 11:55:00,
2014-08-30 08:00:00,76.0,72.5,30.16,South,180,5.0,6.0,89,0.00,,SKC,0.00,VWS V15.00,2014-08-30 12:00:00,
2014-08-30 08:05:00,76.0,72.5,30.16,NNE,22,6.0,8.0,89,0.00,,SKC,0.00,VWS V15.00,2014-08-30 12:05:00,
2014-08-30 08:10:00,76.0,72.2,30.16,NNE,22,5.0,7.0,88,0.00,,SKC,0.00,VWS V15.00,2014-08-30 12:10:00,
2014-08-30 08:15:00,76.0,72.2,30.16,South,180,3.0,3.0,88,0.00,,SKC,0.00,VWS V15.00,2014-08-30 12:15:00,
2014-08-30 08:20:00,77.0,72.8,30.16,South,180,6.0,7.0,87,0.00,,SKC,0.00,VWS V15.00,2014-08-30 12:20:00,
2014-08-30 08:25:00,77.0,72.8,30.16,NNE,22,4.0,4.0,87,0.00,,SKC,0.00,VWS V15.00,2014-08-30 12:25:00,
2014-08-30 08:30:00,77.0,72.8,30.16,South,180,3.0,4.0,87,0.00,,SKC,0.00,VWS V15.00,2014-08-30 12:30:00,
2014-08-30 08:35:00,77.0,72.8,30.16,NNE,22,4.0,4.0,87,0.00,,SKC,0.00,VWS V15.00,2014-08-30 12:35:00,
2014-08-30 08:40:00,78.0,73.5,30.16,NNE,22,6.0,7.0,86,0.00,,SKC,0.00,VWS V15.00,2014-08-30 12:40:00,
2014-08-30 08:45:00,78.0,73.5,30.16,South,180,7.0,7.0,86,0.00,,SKC,0.00,VWS V15.00,2014-08-30 12:45:00,
2014-08-30 08:50:00,78.0,73.5,30.16,South,180,4.0,5.0,86,0.00,,SKC,0.00,VWS V15.00,2014-08-30 12:50:00,
2014-08-30 08:55:00,79.0,74.1,30.16,South,180,4.0,4.0,85,0.00,,SKC,0.00,VWS V15.00,2014-08-30 12:55:00,
2014-08-30 09:00:00,80.0,75.1,30.16,South,180,4.0,6.0,85,0.00,,SKC,0.00,VWS V15.00,2014-08-30 13:00:00,
2014-08-30 09:05:00,80.0,74.7,30.16,South,180,7.0,7.0,84,0.00,,SKC,0.00,VWS V15.00,2014-08-30 13:05:00,
2014-08-30 09:10:00,80.0,75.1,30.16,NE,45,5.0,6.0,85,0.00,,SKC,0.00,VWS V15.00,2014-08-30 13:10:00,
2014-08-30 09:15:00,81.0,75.7,30.16,ENE,67,6.0,8.0,84,0.00,,SKC,0.00,VWS V15.00,2014-08-30 13:15:00,
2014-08-30 09:20:00,81.0,75.7,30.17,SE,135,3.0,6.0,84,0.00,,SKC,0.00,VWS V15.00,2014-08-30 13:20:00,
2014-08-30 09:25:00,81.0,75.7,30.17,East,90,9.0,10.0,84,0.00,,SKC,0.00,VWS V15.00,2014-08-30 13:25:00,
2014-08-30 09:30:00,81.0,75.7,30.17,East,90,5.0,9.0,84,0.00,,SKC,0.00,VWS V15.00,2014-08-30 13:30:00,
2014-08-30 09:35:00,82.0,76.7,30.16,East,90,8.0,10.0,84,0.00,,SKC,0.00,VWS V15.00,2014-08-30 13:35:00,
2014-08-30 09:40:00,82.0,76.7,30.17,East,90,5.0,7.0,84,0.00,,SKC,0.00,VWS V15.00,2014-08-30 13:40:00,
2014-08-30 09:45:00,82.0,76.3,30.17,East,90,6.0,6.0,83,0.00,,SKC,0.00,VWS V15.00,2014-08-30 13:45:00,
2014-08-30 09:50:00,83.0,77.3,30.17,ESE,112,5.0,6.0,83,0.00,,SKC,0.00,VWS V15.00,2014-08-30 13:50:00,
2014-08-30 09:55:00,83.0,76.9,30.17,East,90,7.0,7.0,82,0.00,,SKC,0.00,VWS V15.00,2014-08-30 13:55:00,
2014-08-30 10:00:00,83.0,76.6,30.17,East,90,4.0,6.0,81,0.00,,SKC,0.00,VWS V15.00,2014-08-30 14:00:00,
2014-08-30 10:05:00,84.0,77.2,30.16,ESE,112,6.0,8.0,80,0.00,,SKC,0.00,VWS V15.00,2014-08-30 14:05:00,
2014-08-30 10:10:00,84.0,77.2,30.17,East,90,7.0,8.0,80,0.00,,SKC,0.00,VWS V15.00,2014-08-30 14:10:00,
2014-08-30 10:15:00,84.0,76.4,30.17,East,90,6.0,10.0,78,0.00,,SKC,0.00,VWS V15.00,2014-08-30 14:15:00,
2014-08-30 10:20:00,84.0,76.4,30.17,ENE,67,5.0,7.0,78,0.00,,SKC,0.00,VWS V15.00,2014-08-30 14:20:00,
2014-08-30 10:25:00,84.0,76.0,30.17,ENE,67,7.0,8.0,77,0.00,,SKC,0.00,VWS V15.00,2014-08-30 14:25:00,
2014-08-30 10:30:00,84.0,75.6,30.16,East,90,5.0,6.0,76,0.00,,SKC,0.00,VWS V15.00,2014-08-30 14:30:00,
2014-08-30 10:35:00,84.0,75.2,30.17,ENE,67,4.0,10.0,75,0.00,,SKC,0.00,VWS V15.00,2014-08-30 14:35:00,
2014-08-30 10:40:00,85.0,75.8,30.17,East,90,7.0,7.0,74,0.00,,SKC,0.00,VWS V15.00,2014-08-30 14:40:00,
2014-08-30 10:45:00,85.0,75.8,30.16,ENE,67,8.0,9.0,74,0.00,,SKC,0.00,VWS V15.00,2014-08-30 14:45:00,
2014-08-30 10:50:00,85.0,75.4,30.17,ENE,67,5.0,5.0,73,0.00,,SKC,0.00,VWS V15.00,2014-08-30 14:50:00,
2014-08-30 10:55:00,85.0,75.4,30.16,ENE,67,5.0,6.0,73,0.00,,SKC,0.00,VWS V15.00,2014-08-30 14:55:00,
2014-08-30 11:00:00,85.0,75.0,30.16,ENE,67,7.0,7.0,72,0.00,,SKC,0.00,VWS V15.00,2014-08-30 15:00:00,
2014-08-30 11:05:00,85.0,75.4,30.16,ENE,67,6.0,8.0,73,0.00,,SKC,0.00,VWS V15.00,2014-08-30 15:05:00,
2014-08-30 11:10:00,85.0,75.4,30.16,East,90,7.0,7.0,73,0.00,,SKC,0.00,VWS V15.00,2014-08-30 15:10:00,
2014-08-30 11:15:00,86.0,75.9,30.16,East,90,11.0,12.0,72,0.00,,SKC,0.00,VWS V15.00,2014-08-30 15:15:00,
2014-08-30 11:20:00,86.0,75.9,30.16,ENE,67,7.0,10.0,72,0.00,,SKC,0.00,VWS V15.00,2014-08-30 15:20:00,
2014-08-30 11:25:00,86.0,75.5,30.16,East,90,5.0,11.0,71,0.00,,SKC,0.00,VWS V15.00,2014-08-30 15:25:00,
2014-08-30 11:30:00,86.0,75.5,30.16,ENE,67,10.0,10.0,71,0.00,,SKC,0.00,VWS V15.00,2014-08-30 15:30:00,
2014-08-30 11:35:00,86.0,75.5,30.16,East,90,11.0,11.0,71,0.00,,SKC,0.00,VWS V15.00,2014-08-30 15:35:00,
2014-08-30 11:40:00,86.0,75.1,30.16,ESE,112,3.0,7.0,70,0.00,,SKC,0.00,VWS V15.00,2014-08-30 15:40:00,
2014-08-30 11:45:00,87.0,76.0,30.16,South,180,2.0,9.0,70,0.00,,SKC,0.00,VWS V15.00,2014-08-30 15:45:00,
2014-08-30 11:50:00,87.0,75.6,30.16,ESE,112,7.0,10.0,69,0.00,,SKC,0.00,VWS V15.00,2014-08-30 15:50:00,
2014-08-30 11:55:00,87.0,75.2,30.16,East,90,11.0,11.0,68,0.00,,SKC,0.00,VWS V15.00,2014-08-30 15:55:00,
2014-08-30 12:00:00,87.0,75.2,30.15,ESE,112,9.0,11.0,68,0.00,,SKC,0.00,VWS V15.00,2014-08-30 16:00:00,
2014-08-30 12:05:00,87.0,74.3,30.15,SE,135,6.0,9.0,66,0.00,,SKC,0.00,VWS V15.00,2014-08-30 16:05:00,
2014-08-30 12:10:00,88.0,74.3,30.15,East,90,9.0,12.0,64,0.00,,SKC,0.00,VWS V15.00,2014-08-30 16:10:00,
2014-08-30 12:15:00,88.0,74.3,30.15,ENE,67,9.0,9.0,64,0.00,,SKC,0.00,VWS V15.00,2014-08-30 16:15:00,
2014-08-30 12:20:00,87.0,73.8,30.15,NE,45,8.0,9.0,65,0.00,,SKC,0.00,VWS V15.00,2014-08-30 16:20:00,
2014-08-30 12:25:00,87.0,73.8,30.15,ESE,112,8.0,11.0,65,0.00,,SKC,0.00,VWS V15.00,2014-08-30 16:25:00,
2014-08-30 12:30:00,88.0,73.8,30.15,East,90,5.0,11.0,63,0.00,,SKC,0.00,VWS V15.00,2014-08-30 16:30:00,
2014-08-30 12:35:00,88.0,73.4,30.14,ESE,112,7.0,8.0,62,0.00,,SKC,0.00,VWS V15.00,2014-08-30 16:35:00,
2014-08-30 12:40:00,88.0,73.8,30.14,SE,135,7.0,9.0,63,0.00,,SKC,0.00,VWS V15.00,2014-08-30 16:40:00,
2014-08-30 12:45:00,88.0,74.3,30.14,ENE,67,4.0,7.0,64,0.00,,SKC,0.00,VWS V15.00,2014-08-30 16:45:00,
2014-08-30 12:50:00,88.0,73.8,30.14,ENE,67,8.0,8.0,63,0.00,,SKC,0.00,VWS V15.00,2014-08-30 16:50:00,
2014-08-30 12:55:00,89.0,73.3,30.14,East,90,4.0,6.0,60,0.00,,SKC,0.00,VWS V15.00,2014-08-30 16:55:00,
2014-08-30 13:00:00,89.0,72.8,30.13,East,90,5.0,6.0,59,0.00,,SKC,0.00,VWS V15.00,2014-08-30 17:00:00,
2014-08-30 13:05:00,89.0,73.3,30.14,ENE,67,7.0,7.0,60,0.00,,SKC,0.00,VWS V15.00,2014-08-30 17:05:00,
2014-08-30 13:10:00,89.0,73.3,30.13,ENE,67,10.0,11.0,60,0.00,,SKC,0.00,VWS V15.00,2014-08-30 17:10:00,
2014-08-30 13:15:00,89.0,73.8,30.14,ENE,67,5.0,5.0,61,0.00,,SKC,0.00,VWS V15.00,2014-08-30 17:15:00,
2014-08-30 13:20:00,89.0,73.8,30.13,East,90,6.0,8.0,61,0.00,,SKC,0.00,VWS V15.00,2014-08-30 17:20:00,
2014-08-30 13:25:00,89.0,73.3,30.14,East,90,9.0,10.0,60,0.00,,SKC,0.00,VWS V15.00,2014-08-30 17:25:00,
2014-08-30 13:30:00,89.0,73.3,30.14,ENE,67,8.0,9.0,60,0.00,,SKC,0.00,VWS V15.00,2014-08-30 17:30:00,
2014-08-30 13:35:00,89.0,72.8,30.13,NNE,22,1.0,3.0,59,0.00,,SKC,0.00,VWS V15.00,2014-08-30 17:35:00,
2014-08-30 13:40:00,89.0,72.8,30.13,ENE,67,7.0,11.0,59,0.00,,SKC,0.00,VWS V15.00,2014-08-30 17:40:00,
2014-08-30 13:45:00,89.0,72.8,30.13,ESE,112,10.0,10.0,59,0.00,,SKC,0.00,VWS V15.00,2014-08-30 17:45:00,
2014-08-30 13:50:00,89.0,72.8,30.12,East,90,7.0,7.0,59,0.00,,SKC,0.00,VWS V15.00,2014-08-30 17:50:00,
2014-08-30 13:55:00,90.0,73.8,30.12,East,90,9.0,9.0,59,0.00,,SKC,0.00,VWS V15.00,2014-08-30 17:55:00,
2014-08-30 14:00:00,90.0,73.8,30.12,ENE,67,7.0,8.0,59,0.00,,SKC,0.00,VWS V15.00,2014-08-30 18:00:00,
2014-08-30 14:05:00,90.0,73.2,30.11,ENE,67,8.0,8.0,58,0.00,,SKC,0.00,VWS V15.00,2014-08-30 18:05:00,
2014-08-30 14:10:00,90.0,73.2,30.12,ESE,112,8.0,11.0,58,0.00,,SKC,0.00,VWS V15.00,2014-08-30 18:10:00,
2014-08-30 14:15:00,90.0,73.2,30.11,East,90,5.0,5.0,58,0.00,,SKC,0.00,VWS V15.00,2014-08-30 18:15:00,
2014-08-30 14:20:00,90.0,72.7,30.11,NE,45,10.0,12.0,57,0.00,,SKC,0.00,VWS V15.00,2014-08-30 18:20:00,
2014-08-30 14:25:00,90.0,72.7,30.11,ENE,67,9.0,11.0,57,0.00,,SKC,0.00,VWS V15.00,2014-08-30 18:25:00,
2014-08-30 14:30:00,90.0,72.2,30.11,ESE,112,7.0,8.0,56,0.00,,SKC,0.00,VWS V15.00,2014-08-30 18:30:00,
2014-08-30 14:35:00,90.0,72.2,30.10,East,90,10.0,13.0,56,0.00,,SKC,0.00,VWS V15.00,2014-08-30 18:35:00,
2014-08-30 14:40:00,90.0,72.2,30.11,ESE,112,8.0,12.0,56,0.00,,SKC,0.00,VWS V15.00,2014-08-30 18:40:00,
2014-08-30 14:45:00,90.0,71.7,30.10,ENE,67,9.0,10.0,55,0.00,,SKC,0.00,VWS V15.00,2014-08-30 18:45:00,
2014-08-30 14:50:00,91.0,72.1,30.10,East,90,9.0,10.0,54,0.00,,SKC,0.00,VWS V15.00,2014-08-30 18:50:00,
2014-08-30 14:55:00,91.0,72.1,30.10,East,90,4.0,5.0,54,0.00,,SKC,0.00,VWS V15.00,2014-08-30 18:55:00,
2014-08-30 15:00:00,91.0,72.6,30.10,East,90,8.0,10.0,55,0.00,,SKC,0.00,VWS V15.00,2014-08-30 19:00:00,
2014-08-30 15:05:00,91.0,72.6,30.09,ENE,67,4.0,5.0,55,0.00,,SKC,0.00,VWS V15.00,2014-08-30 19:05:00,
2014-08-30 15:10:00,91.0,73.1,30.09,NE,45,6.0,7.0,56,0.00,,SKC,0.00,VWS V15.00,2014-08-30 19:10:00,
2014-08-30 15:15:00,91.0,73.1,30.09,NNW,337,0.0,6.0,56,0.00,,SKC,0.00,VWS V15.00,2014-08-30 19:15:00,
2014-08-30 15:20:00,91.0,72.6,30.09,NE,45,11.0,11.0,55,0.00,,SKC,0.00,VWS V15.00,2014-08-30 19:20:00,
2014-08-30 15:25:00,91.0,72.6,30.09,NNE,22,7.0,8.0,55,0.00,,SKC,0.00,VWS V15.00,2014-08-30 19:25:00,
2014-08-30 15:30:00,91.0,72.1,30.09,ENE,67,5.0,6.0,54,0.00,,SKC,0.00,VWS V15.00,2014-08-30 19:30:00,
2014-08-30 15:35:00,91.0,72.1,30.08,NE,45,1.0,2.0,54,0.00,,SKC,0.00,VWS V15.00,2014-08-30 19:35:00,
2014-08-30 15:40:00,91.0,71.5,30.08,NNE,22,4.0,4.0,53,0.00,,SKC,0.00,VWS V15.00,2014-08-30 19:40:00,
2014-08-30 15:45:00,92.0,72.4,30.08,NNE,22,6.0,7.0,53,0.00,,SKC,0.00,VWS V15.00,2014-08-30 19:45:00,
2014-08-30 15:50:00,92.0,72.4,30.08,ENE,67,5.0,6.0,53,0.00,,SKC,0.00,VWS V15.00,2014-08-30 19:50:00,
2014-08-30 15:55:00,91.0,72.6,30.07,NNW,337,3.0,6.0,55,0.00,,SKC,0.00,VWS V15.00,2014-08-30 19:55:00,
2014-08-30 16:00:00,91.0,72.6,30.07,NNE,22,3.0,6.0,55,0.00,,SKC,0.00,VWS V15.00,2014-08-30 20:00:00,
2014-08-30 16:05:00,91.0,72.1,30.07,NE,45,12.0,17.0,54,0.00,,SKC,0.00,VWS V15.00,2014-08-30 20:05:00,
2014-08-30 16:10:00,90.0,72.7,30.06,East,90,16.0,18.0,57,0.00,,SKC,0.00,VWS V15.00,2014-08-30 20:10:00,
2014-08-30 16:15:00,88.0,72.4,30.07,East,90,15.0,15.0,60,0.00,,SKC,0.00,VWS V15.00,2014-08-30 20:15:00,
2014-08-30 16:20:00,87.0,71.9,30.07,SE,135,7.0,7.0,61,0.00,,SKC,0.00,VWS V15.00,2014-08-30 20:20:00,
2014-08-30 16:25:00,87.0,71.9,30.07,SE,135,3.0,3.0,61,0.00,,SKC,0.00,VWS V15.00,2014-08-30 20:25:00,
2014-08-30 16:30:00,88.0,72.4,30.06,ENE,67,2.0,3.0,60,0.00,,SKC,0.00,VWS V15.00,2014-08-30 20:30:00,
2014-08-30 16:35:00,89.0,72.8,30.06,East,90,4.0,4.0,59,0.00,,SKC,0.00,VWS V15.00,2014-08-30 20:35:00,
2014-08-30 16:40:00,90.0,72.7,30.06,East,90,2.0,4.0,57,0.00,,SKC,0.00,VWS V15.00,2014-08-30 20:40:00,
2014-08-30 16:45:00,90.0,72.2,30.06,ENE,67,4.0,4.0,56,0.00,,SKC,0.00,VWS V15.00,2014-08-30 20:45:00,
2014-08-30 16:50:00,91.0,73.1,30.06,NE,45,4.0,4.0,56,0.00,,SKC,0.00,VWS V15.00,2014-08-30 20:50:00,
2014-08-30 16:55:00,91.0,72.6,30.06,ENE,67,5.0,5.0,55,0.00,,SKC,0.00,VWS V15.00,2014-08-30 20:55:00,
2014-08-30 17:00:00,92.0,73.0,30.06,North,360,0.0,2.0,54,0.00,,SKC,0.00,VWS V15.00,2014-08-30 21:00:00,
2014-08-30 17:05:00,93.0,73.3,30.06,NNE,22,6.0,6.0,53,0.00,,SKC,0.00,VWS V15.00,2014-08-30 21:05:00,
2014-08-30 17:10:00,93.0,72.8,30.06,NNE,22,4.0,4.0,52,0.00,,SKC,0.00,VWS V15.00,2014-08-30 21:10:00,
2014-08-30 17:15:00,92.0,71.9,30.06,ESE,112,4.0,5.0,52,0.00,,SKC,0.00,VWS V15.00,2014-08-30 21:15:00,
2014-08-30 17:20:00,93.0,72.8,30.06,NNW,337,7.0,10.0,52,0.00,,SKC,0.00,VWS V15.00,2014-08-30 21:20:00,
2014-08-30 17:25:00,93.0,72.8,30.06,NNW,337,7.0,8.0,52,0.00,,SKC,0.00,VWS V15.00,2014-08-30 21:25:00,
2014-08-30 17:30:00,92.0,71.9,30.06,NE,45,0.0,4.0,52,0.00,,SKC,0.00,VWS V15.00,2014-08-30 21:30:00,
2014-08-30 17:35:00,92.0,72.4,30.06,ENE,67,5.0,5.0,53,0.00,,SKC,0.00,VWS V15.00,2014-08-30 21:35:00,
2014-08-30 17:40:00,91.0,72.1,30.06,ENE,67,6.0,7.0,54,0.00,,SKC,0.00,VWS V15.00,2014-08-30 21:40:00,
2014-08-30 17:45:00,91.0,72.6,30.06,SW,225,1.0,2.0,55,0.00,,SKC,0.00,VWS V15.00,2014-08-30 21:45:00,
2014-08-30 17:50:00,91.0,73.1,30.06,ESE,112,3.0,4.0,56,0.00,,SKC,0.00,VWS V15.00,2014-08-30 21:50:00,
2014-08-30 17:55:00,90.0,72.7,30.06,SE,135,3.0,4.0,57,0.00,,SKC,0.00,VWS V15.00,2014-08-30 21:55:00,
2014-08-30 18:00:00,90.0,73.2,30.07,SE,135,1.0,2.0,58,0.00,,SKC,0.00,VWS V15.00,2014-08-30 22:00:00,
2014-08-30 18:05:00,90.0,73.2,30.06,ESE,112,3.0,3.0,58,0.00,,SKC,0.00,VWS V15.00,2014-08-30 22:05:00,
2014-08-30 18:10:00,90.0,72.7,30.07,ESE,112,4.0,4.0,57,0.00,,SKC,0.00,VWS V15.00,2014-08-30 22:10:00,
2014-08-30 18:15:00,90.0,72.2,30.07,ESE,112,2.0,3.0,56,0.00,,SKC,0.00,VWS V15.00,2014-08-30 22:15:00,
2014-08-30 18:20:00,90.0,72.7,30.08,East,90,22.0,27.0,57,0.00,,SKC,0.00,VWS V15.00,2014-08-30 22:20:00,
2014-08-30 18:25:00,87.0,70.9,30.10,East,90,19.0,29.0,59,0.00,,SKC,0.00,VWS V15.00,2014-08-30 22:25:00,
2014-08-30 18:30:00,84.0,69.6,30.09,East,90,25.0,30.0,62,0.00,,SKC,0.00,VWS V15.00,2014-08-30 22:30:00,
2014-08-30 18:35:00,82.0,69.1,30.08,East,90,12.0,17.0,65,0.00,,SKC,0.00,VWS V15.00,2014-08-30 22:35:00,
2014-08-30 18:40:00,81.0,69.9,30.09,East,90,16.0,20.0,69,0.00,,SKC,0.00,VWS V15.00,2014-08-30 22:40:00,
2014-08-30 18:45:00,80.0,70.6,30.07,East,90,17.0,18.0,73,0.00,,SKC,0.00,VWS V15.00,2014-08-30 22:45:00,
2014-08-30 18:50:00,78.0,69.8,30.07,East,90,20.0,20.0,76,0.00,,SKC,0.00,VWS V15.00,2014-08-30 22:50:00,
2014-08-30 18:55:00,78.0,70.6,30.08,ESE,112,14.0,19.0,78,0.00,,SKC,0.00,VWS V15.00,2014-08-30 22:55:00,
2014-08-30 19:00:00,78.0,70.6,30.08,East,90,20.0,24.0,78,0.00,,SKC,0.00,VWS V15.00,2014-08-30 23:00:00,
2014-08-30 19:05:00,78.0,70.6,30.08,East,90,15.0,15.0,78,0.00,,SKC,0.00,VWS V15.00,2014-08-30 23:05:00,
2014-08-30 19:10:00,78.0,70.6,30.06,East,90,7.0,9.0,78,0.00,,SKC,0.00,VWS V15.00,2014-08-30 23:10:00,
2014-08-30 19:15:00,77.0,70.0,30.06,SE,135,11.0,12.0,79,0.00,,SKC,0.00,VWS V15.00,2014-08-30 23:15:00,
2014-08-30 19:20:00,77.0,69.6,30.08,East,90,4.0,6.0,78,0.00,,SKC,0.00,VWS V15.00,2014-08-30 23:20:00,
2014-08-30 19:25:00,79.0,70.4,30.09,South,180,0.0,0.0,75,0.00,,SKC,0.00,VWS V15.00,2014-08-30 23:25:00,
2014-08-30 19:30:00,80.0,70.6,30.10,West,270,12.0,13.0,73,0.00,,SKC,0.00,VWS V15.00,2014-08-30 23:30:00,
2014-08-30 19:35:00,80.0,70.2,30.10,West,270,14.0,14.0,72,0.00,,SKC,0.00,VWS V15.00,2014-08-30 23:35:00,
2014-08-30 19:40:00,80.0,70.2,30.10,West,270,5.0,6.0,72,0.00,,SKC,0.00,VWS V15.00,2014-08-30 23:40:00,
2014-08-30 19:45:00,80.0,71.4,30.11,SSE,157,4.0,5.0,75,0.00,,SKC,0.00,VWS V15.00,2014-08-30 23:45:00,
2014-08-30 19:50:00,79.0,71.2,30.12,ESE,112,0.0,1.0,77,0.00,,SKC,0.00,VWS V15.00,2014-08-30 23:50:00,
2014-08-30 19:55:00,79.0,71.6,30.12,East,90,4.0,5.0,78,0.00,,SKC,0.00,VWS V15.00,2014-08-30 23:55:00,
2014-08-30 20:00:00,78.0,71.3,30.12,SE,135,4.0,4.0,80,0.00,,SKC,0.00,VWS V15.00,2014-08-31 00:00:00,
2014-08-30 20:05:00,78.0,71.3,30.11,SE,135,1.0,2.0,80,0.00,,SKC,0.00,VWS V15.00,2014-08-31 00:05:00,
2014-08-30 20:10:00,78.0,71.3,30.12,SE,135,2.0,2.0,80,0.00,,SKC,0.00,VWS V15.00,2014-08-31 00:10:00,
2014-08-30 20:15:00,78.0,71.7,30.12,SSE,157,0.0,0.0,81,0.00,,SKC,0.00,VWS V15.00,2014-08-31 00:15:00,
2014-08-30 20:20:00,78.0,71.7,30.13,ESE,112,0.0,2.0,81,0.00,,SKC,0.00,VWS V15.00,2014-08-31 00:20:00,